Terminal Aerodrome Forecast
Issued by NWS Tampa Bay Area, FL

Home | Current Version | Previous Version | Text Only | Print | Product List | Glossary Off
Versions: 1 2 3 4 5 6 7 8 9 10 11 12 13

000
FTUS42 KTBW 311700
TAFSRQ
TAF
KSRQ 311738Z 3118/0118 33011G20KT P6SM FEW200
     FM010200 33008KT P6SM FEW250
     FM011200 33014KT P6SM SCT025
     FM011600 33017G26KT P6SM FEW025 SCT250=

USA.gov is the U.S. government's official web portal to all federal, state and local government web resources and services.